Time;durP1;ratioP1;P1;durP2;ratioP2;P2;SDS_P1;SDS_P2;PMS_P1;PMS_P2;Temp;Humidity;BMP_temperature;BMP_pressure;BME280_temperature;BME280_humidity;BME280_pressure;Samples;Min_cycle;Max_cycle;Signal;HPM_P1;HPM_P2
2021/06/27 00:02:23;;;;;;;58.25;35.47;;;16.20;97.00;;;;;;4985617;28;20148;-86
2021/06/27 00:04:49;;;;;;;54.28;34.42;;;16.10;97.10;;;;;;5020774;28;20053;-85
2021/06/27 00:07:15;;;;;;;58.72;34.67;;;16.10;97.10;;;;;;5006665;28;20035;-86
2021/06/27 00:09:41;;;;;;;58.50;35.63;;;16.10;97.10;;;;;;4965161;28;20124;-88
2021/06/27 00:12:10;;;;;;;55.83;34.47;;;16.10;97.20;;;;;;4966969;28;20563;-87
2021/06/27 00:14:37;;;;;;;59.03;35.33;;;16.00;97.10;;;;;;4996026;28;20033;-87
2021/06/27 00:17:03;;;;;;;57.08;33.72;;;16.00;97.20;;;;;;4993864;28;20038;-85
2021/06/27 00:19:29;;;;;;;61.90;33.60;;;16.00;97.30;;;;;;5001110;28;20033;-85
2021/06/27 00:21:56;;;;;;;57.95;32.95;;;15.90;97.30;;;;;;5016284;28;20056;-85
2021/06/27 00:24:21;;;;;;;55.10;32.30;;;15.90;97.40;;;;;;4981232;28;20045;-86
2021/06/27 00:26:47;;;;;;;59.75;33.90;;;15.90;97.50;;;;;;4985621;28;20041;-88
2021/06/27 00:29:13;;;;;;;55.60;33.17;;;15.90;97.40;;;;;;4968460;28;20064;-83
2021/06/27 00:31:40;;;;;;;56.70;32.65;;;15.90;97.50;;;;;;5016871;28;20041;-86
2021/06/27 00:34:06;;;;;;;57.47;32.42;;;15.80;97.60;;;;;;4982163;28;20045;-85
2021/06/27 00:36:31;;;;;;;55.88;32.25;;;15.80;97.60;;;;;;4981378;28;20133;-87
2021/06/27 00:38:57;;;;;;;58.80;32.35;;;15.80;97.70;;;;;;4969804;28;20273;-86
2021/06/27 00:41:23;;;;;;;53.38;31.85;;;15.70;97.80;;;;;;4972966;28;20109;-85
2021/06/27 00:43:50;;;;;;;55.97;32.08;;;15.70;97.70;;;;;;4968767;28;20103;-84
2021/06/27 00:46:16;;;;;;;56.47;31.88;;;15.60;97.80;;;;;;4979809;28;20889;-84
2021/06/27 00:48:42;;;;;;;52.97;31.05;;;15.60;97.90;;;;;;4985544;28;20108;-84
2021/06/27 00:51:08;;;;;;;55.83;31.83;;;15.60;98.00;;;;;;4986851;28;20065;-88
2021/06/27 00:53:34;;;;;;;54.85;31.77;;;15.50;98.00;;;;;;4968551;28;20080;-87
2021/06/27 00:56:00;;;;;;;51.75;30.08;;;15.50;98.00;;;;;;4970642;28;20029;-88
2021/06/27 00:58:34;;;;;;;59.10;31.83;;;15.50;98.00;;;;;;4999957;28;20393;-87
2021/06/27 01:01:04;;;;;;;55.80;31.02;;;15.50;98.00;;;;;;5000995;28;20117;-86
2021/06/27 01:03:30;;;;;;;57.75;31.02;;;15.40;98.10;;;;;;4995129;28;20091;-85
2021/06/27 01:05:56;;;;;;;55.40;30.10;;;15.40;98.30;;;;;;4971360;28;20440;-86
2021/06/27 01:08:23;;;;;;;52.75;31.17;;;15.40;98.30;;;;;;4998911;28;20036;-84
2021/06/27 01:10:49;;;;;;;57.67;30.33;;;15.40;98.40;;;;;;4994018;28;20033;-86
2021/06/27 01:13:17;;;;;;;53.20;31.50;;;15.30;98.30;;;;;;4996703;28;20076;-86
2021/06/27 01:15:44;;;;;;;56.38;31.02;;;15.30;98.50;;;;;;5009550;28;20121;-86
2021/06/27 01:18:10;;;;;;;56.25;31.42;;;15.30;98.40;;;;;;5030633;28;20038;-84
2021/06/27 01:20:38;;;;;;;59.70;31.60;;;15.30;98.40;;;;;;5005849;28;20487;-85
2021/06/27 01:23:08;;;;;;;61.65;32.13;;;15.30;98.60;;;;;;5015192;28;20523;-86
2021/06/27 01:25:37;;;;;;;55.75;31.13;;;15.30;98.60;;;;;;5013963;28;20036;-90
2021/06/27 01:28:04;;;;;;;64.13;31.48;;;15.20;98.60;;;;;;5008048;28;20468;-85
2021/06/27 01:30:31;;;;;;;62.75;31.60;;;15.20;98.50;;;;;;4983372;28;20037;-86
2021/06/27 01:33:00;;;;;;;60.90;32.45;;;15.20;98.90;;;;;;5019087;28;20038;-90
2021/06/27 01:35:26;;;;;;;60.13;31.52;;;15.20;98.90;;;;;;5011635;28;20034;-86
2021/06/27 01:37:54;;;;;;;60.42;31.77;;;15.20;98.90;;;;;;5006836;28;20057;-90
2021/06/27 01:40:22;;;;;;;53.78;31.35;;;15.10;99.00;;;;;;5008183;28;20514;-88
2021/06/27 01:42:49;;;;;;;59.65;30.98;;;15.10;98.90;;;;;;5006777;28;20038;-85
2021/06/27 01:45:21;;;;;;;61.00;32.13;;;15.10;99.00;;;;;;5011705;28;20041;-86
2021/06/27 01:47:59;;;;;;;63.80;31.95;;;15.10;99.00;;;;;;5013949;28;20527;-86
2021/06/27 01:50:26;;;;;;;63.95;31.65;;;15.10;99.20;;;;;;4994332;28;20256;-87
2021/06/27 01:52:55;;;;;;;64.38;33.25;;;15.10;99.20;;;;;;5010249;28;20488;-87
2021/06/27 01:55:21;;;;;;;64.03;32.90;;;15.00;99.10;;;;;;4993700;28;20029;-85
2021/06/27 01:57:47;;;;;;;59.78;31.05;;;15.00;99.10;;;;;;4979727;28;20052;-87
2021/06/27 02:00:13;;;;;;;63.90;31.88;;;15.00;99.30;;;;;;5006255;28;20140;-87
2021/06/27 02:02:40;;;;;;;59.33;32.40;;;15.00;99.40;;;;;;5005663;28;20029;-86
2021/06/27 02:05:07;;;;;;;67.95;32.50;;;15.00;99.30;;;;;;4982170;28;20063;-86
2021/06/27 02:07:36;;;;;;;62.60;30.73;;;15.00;99.60;;;;;;5000597;28;20033;-87
2021/06/27 02:10:06;;;;;;;67.57;32.83;;;15.00;99.50;;;;;;5015447;28;20037;-87
2021/06/27 02:12:32;;;;;;;62.70;32.50;;;14.90;99.50;;;;;;5010305;28;20033;-87
2021/06/27 02:14:58;;;;;;;63.03;30.48;;;14.90;99.40;;;;;;5011184;28;20041;-85
2021/06/27 02:17:24;;;;;;;67.55;32.20;;;14.90;99.50;;;;;;5011422;28;20041;-86
2021/06/27 02:19:54;;;;;;;67.90;32.00;;;14.90;99.50;;;;;;4993558;28;20037;-92
2021/06/27 02:22:21;;;;;;;65.25;30.70;;;14.80;99.60;;;;;;5023373;28;20022;-90
2021/06/27 02:24:47;;;;;;;66.28;32.05;;;14.90;99.60;;;;;;4986084;28;20088;-88
2021/06/27 02:27:14;;;;;;;69.07;33.20;;;14.80;99.60;;;;;;4998028;28;20043;-85
2021/06/27 02:29:41;;;;;;;66.20;32.58;;;14.80;99.60;;;;;;5013567;28;20079;-90
2021/06/27 02:32:07;;;;;;;68.65;32.53;;;14.80;99.80;;;;;;4997500;28;20423;-86
2021/06/27 02:34:33;;;;;;;69.57;32.83;;;14.80;99.80;;;;;;4973066;28;20176;-86
2021/06/27 02:37:00;;;;;;;68.65;33.75;;;14.80;99.90;;;;;;4978406;28;20061;-85
2021/06/27 02:39:27;;;;;;;71.65;32.85;;;14.70;99.90;;;;;;4979608;28;20030;-88
2021/06/27 02:41:54;;;;;;;71.50;33.42;;;14.70;99.80;;;;;;5014508;28;20119;-89
2021/06/27 02:44:20;;;;;;;75.40;34.22;;;14.70;99.80;;;;;;4995221;28;20053;-87
2021/06/27 02:46:47;;;;;;;72.85;34.97;;;14.70;99.90;;;;;;4992905;28;20115;-87
2021/06/27 02:49:14;;;;;;;73.53;35.45;;;14.70;99.90;;;;;;4997565;28;20061;-87
2021/06/27 02:51:39;;;;;;;78.50;35.63;;;14.70;99.90;;;;;;4979427;28;20452;-86
2021/06/27 02:54:06;;;;;;;80.72;34.92;;;14.70;99.90;;;;;;4973634;28;20042;-86
2021/06/27 02:56:32;;;;;;;75.40;33.67;;;14.70;99.90;;;;;;4989957;28;20084;-86
2021/06/27 02:58:59;;;;;;;82.32;35.95;;;14.70;99.90;;;;;;4975531;28;20447;-85
2021/06/27 03:01:25;;;;;;;79.47;35.50;;;14.70;99.90;;;;;;4993024;28;20048;-86
2021/06/27 03:03:51;;;;;;;77.07;36.72;;;14.70;99.90;;;;;;4977195;28;20040;-86
2021/06/27 03:06:19;;;;;;;79.50;35.55;;;14.70;99.90;;;;;;4977069;28;20032;-88
2021/06/27 03:08:46;;;;;;;83.38;36.78;;;14.70;99.90;;;;;;5004399;28;20041;-86
2021/06/27 03:11:13;;;;;;;75.32;36.03;;;14.70;99.90;;;;;;4985456;28;20038;-87
2021/06/27 03:13:42;;;;;;;73.93;35.25;;;14.70;99.90;;;;;;4986625;28;20419;-84
2021/06/27 03:16:09;;;;;;;80.05;36.70;;;14.70;99.90;;;;;;4990020;28;20042;-85
2021/06/27 03:18:36;;;;;;;76.43;34.88;;;14.70;99.90;;;;;;4979384;28;20050;-85
2021/06/27 03:21:03;;;;;;;88.80;37.60;;;14.60;99.90;;;;;;5004325;28;20116;-86
2021/06/27 03:23:30;;;;;;;87.82;38.42;;;14.70;99.90;;;;;;4989610;28;20168;-86
2021/06/27 03:25:57;;;;;;;80.82;36.13;;;14.70;99.90;;;;;;5019641;28;20046;-87
2021/06/27 03:28:26;;;;;;;84.25;35.42;;;14.70;99.90;;;;;;4986761;28;20042;-87
2021/06/27 03:30:52;;;;;;;84.40;36.70;;;14.60;99.90;;;;;;4977350;28;20033;-88
2021/06/27 03:33:18;;;;;;;84.03;37.40;;;14.60;99.90;;;;;;4990599;28;20202;-89
2021/06/27 03:35:44;;;;;;;85.88;37.35;;;14.70;99.90;;;;;;4991411;28;20030;-87
2021/06/27 03:40:44;;;;;;;83.05;36.55;;;14.60;99.90;;;;;;4975270;28;20115;-88
2021/06/27 03:43:10;;;;;;;80.18;37.33;;;14.60;99.90;;;;;;4989194;28;20041;-85
2021/06/27 03:45:37;;;;;;;86.50;36.58;;;14.60;99.90;;;;;;4981541;28;20475;-84
2021/06/27 03:48:05;;;;;;;92.55;37.63;;;14.60;99.90;;;;;;4966715;28;20071;-85
2021/06/27 03:50:32;;;;;;;93.93;37.33;;;14.60;99.90;;;;;;4971687;28;20044;-87
2021/06/27 03:52:58;;;;;;;89.85;37.45;;;14.70;99.90;;;;;;4968104;28;20061;-86
2021/06/27 03:55:24;;;;;;;87.05;36.88;;;14.70;99.90;;;;;;5019800;28;20068;-86
2021/06/27 03:57:50;;;;;;;92.88;37.80;;;14.70;99.90;;;;;;4987120;28;20038;-88
2021/06/27 04:00:17;;;;;;;94.65;38.33;;;14.70;99.90;;;;;;4966759;28;20033;-88
2021/06/27 04:02:44;;;;;;;111.80;39.20;;;14.70;99.90;;;;;;4986492;28;20030;-88
2021/06/27 04:05:11;;;;;;;139.32;42.10;;;14.70;99.90;;;;;;4986630;28;20084;-87
2021/06/27 04:07:38;;;;;;;166.55;42.55;;;14.70;99.90;;;;;;5000229;28;20099;-86
2021/06/27 04:10:05;;;;;;;187.05;44.15;;;14.80;99.90;;;;;;4996383;28;20492;-88
2021/06/27 04:12:31;;;;;;;178.55;44.67;;;14.80;99.90;;;;;;4979619;28;20030;-86
2021/06/27 04:14:57;;;;;;;226.88;45.22;;;14.80;99.90;;;;;;4985122;28;20045;-86
2021/06/27 04:17:23;;;;;;;201.25;45.55;;;14.80;99.90;;;;;;5010279;28;20110;-87
2021/06/27 04:19:50;;;;;;;199.48;42.85;;;14.80;99.90;;;;;;4970469;28;20062;-87
2021/06/27 04:22:18;;;;;;;312.17;43.35;;;14.80;99.90;;;;;;4977717;28;20496;-87
2021/06/27 04:24:44;;;;;;;255.02;43.72;;;14.80;99.90;;;;;;5007452;28;20037;-90
2021/06/27 04:27:11;;;;;;;320.20;43.90;;;14.80;99.90;;;;;;4984529;28;20037;-87
2021/06/27 04:29:37;;;;;;;223.13;40.17;;;14.80;99.90;;;;;;4987694;28;20030;-86
2021/06/27 04:32:03;;;;;;;242.10;42.65;;;14.80;99.90;;;;;;4972278;28;20041;-85
2021/06/27 04:34:30;;;;;;;222.93;41.30;;;14.80;99.90;;;;;;4997747;28;20083;-84
2021/06/27 04:36:56;;;;;;;212.95;41.72;;;14.80;99.90;;;;;;4990136;28;20190;-84
2021/06/27 04:39:22;;;;;;;184.18;40.30;;;14.80;99.90;;;;;;4999714;28;20044;-87
2021/06/27 04:41:50;;;;;;;221.55;40.70;;;14.80;99.90;;;;;;4984381;28;20029;-85
2021/06/27 04:44:17;;;;;;;162.20;40.05;;;14.90;99.90;;;;;;4988733;28;20034;-89
2021/06/27 04:46:43;;;;;;;210.55;39.42;;;14.90;99.90;;;;;;4966762;28;20065;-87
2021/06/27 04:49:11;;;;;;;162.45;37.05;;;14.90;99.90;;;;;;4978844;28;20042;-86
2021/06/27 04:51:37;;;;;;;149.85;34.70;;;14.90;99.90;;;;;;4996724;28;20029;-85
2021/06/27 04:54:03;;;;;;;181.73;37.38;;;14.90;99.90;;;;;;4986396;28;20037;-84
2021/06/27 04:56:30;;;;;;;124.15;36.10;;;15.00;99.90;;;;;;4970544;28;20382;-85
2021/06/27 04:58:55;;;;;;;171.25;36.47;;;15.00;99.90;;;;;;4985163;28;20040;-85
2021/06/27 05:01:21;;;;;;;154.95;36.50;;;15.00;99.90;;;;;;4981306;28;20543;-87
2021/06/27 05:03:47;;;;;;;146.75;35.95;;;15.00;99.90;;;;;;5010180;28;20064;-86
2021/06/27 05:06:13;;;;;;;147.02;35.08;;;15.10;99.90;;;;;;4970833;28;20033;-84
2021/06/27 05:08:39;;;;;;;133.82;37.55;;;15.10;99.90;;;;;;4981494;28;20037;-85
2021/06/27 05:11:05;;;;;;;111.35;36.22;;;15.10;99.90;;;;;;4981579;28;20091;-85
2021/06/27 05:13:30;;;;;;;113.60;35.72;;;15.10;99.90;;;;;;4993068;28;20049;-86
2021/06/27 05:15:56;;;;;;;95.00;36.67;;;15.20;99.90;;;;;;4994066;28;20037;-87
2021/06/27 05:18:23;;;;;;;99.72;35.88;;;15.20;99.90;;;;;;4984595;28;20095;-88
2021/06/27 05:20:49;;;;;;;105.32;36.55;;;15.30;99.90;;;;;;4981522;28;20049;-85
2021/06/27 05:23:16;;;;;;;100.35;37.72;;;15.30;99.90;;;;;;5003091;28;20528;-85
2021/06/27 05:25:41;;;;;;;90.70;36.00;;;15.30;99.90;;;;;;4979173;28;20491;-85
2021/06/27 05:28:08;;;;;;;87.97;36.97;;;15.40;99.90;;;;;;4979270;28;20057;-86
2021/06/27 05:30:34;;;;;;;89.40;35.72;;;15.50;99.90;;;;;;4989741;28;20068;-85
2021/06/27 05:33:01;;;;;;;84.03;37.35;;;15.50;99.90;;;;;;4996951;28;20057;-86
2021/06/27 05:35:27;;;;;;;79.85;35.60;;;15.60;99.90;;;;;;4983730;28;20037;-85
2021/06/27 05:37:53;;;;;;;87.65;36.55;;;15.60;99.90;;;;;;4983565;28;20057;-89
2021/06/27 05:40:19;;;;;;;81.15;36.50;;;15.60;99.90;;;;;;4982381;28;20085;-86
2021/06/27 05:42:46;;;;;;;83.00;37.38;;;15.70;99.90;;;;;;5003494;28;20038;-86
2021/06/27 05:45:12;;;;;;;76.85;36.22;;;15.70;99.90;;;;;;5004760;28;20404;-86
2021/06/27 05:47:38;;;;;;;70.68;34.72;;;15.80;99.90;;;;;;4995730;28;20033;-87
2021/06/27 05:50:05;;;;;;;70.22;35.55;;;15.90;99.90;;;;;;4969703;28;20160;-85
2021/06/27 05:52:31;;;;;;;70.78;34.63;;;15.90;99.90;;;;;;4984797;28;20029;-86
2021/06/27 05:54:57;;;;;;;68.05;35.83;;;15.90;99.90;;;;;;4989144;28;20049;-83
2021/06/27 05:57:23;;;;;;;67.63;34.65;;;15.90;99.90;;;;;;5000883;28;20041;-87
2021/06/27 05:59:49;;;;;;;67.70;35.90;;;16.00;99.90;;;;;;4971425;28;20052;-87
2021/06/27 06:02:15;;;;;;;66.85;35.65;;;16.00;99.90;;;;;;4997951;28;20061;-88
2021/06/27 06:04:41;;;;;;;63.92;33.08;;;16.10;99.90;;;;;;4982313;28;20045;-88
2021/06/27 06:07:07;;;;;;;67.28;36.42;;;16.10;99.90;;;;;;4989400;28;20072;-85
2021/06/27 06:09:33;;;;;;;61.55;34.03;;;16.20;99.90;;;;;;4968137;28;20030;-85
2021/06/27 06:11:58;;;;;;;61.00;34.22;;;16.20;99.90;;;;;;4970044;28;20541;-85
2021/06/27 06:14:24;;;;;;;58.10;32.97;;;16.20;99.90;;;;;;4978491;28;20372;-88
2021/06/27 06:16:51;;;;;;;54.13;32.95;;;16.30;99.90;;;;;;4983716;28;20038;-88
2021/06/27 06:19:19;;;;;;;57.38;31.55;;;16.40;99.90;;;;;;4971022;28;20046;-87
2021/06/27 06:21:49;;;;;;;54.20;32.20;;;16.50;99.90;;;;;;4994963;28;20034;-84
2021/06/27 06:24:16;;;;;;;50.45;31.27;;;16.60;99.90;;;;;;5013359;28;20053;-86
2021/06/27 06:26:43;;;;;;;55.47;32.60;;;16.60;99.90;;;;;;5008198;28;20499;-85
2021/06/27 06:29:09;;;;;;;53.95;32.53;;;16.60;99.90;;;;;;5014428;28;20025;-87
2021/06/27 06:31:35;;;;;;;57.80;32.33;;;16.60;99.90;;;;;;4974381;28;20034;-88
2021/06/27 06:34:00;;;;;;;54.88;32.47;;;16.60;99.90;;;;;;5016575;28;20120;-84
2021/06/27 06:36:26;;;;;;;51.33;33.20;;;16.70;99.90;;;;;;4985891;28;20034;-87
2021/06/27 06:38:52;;;;;;;58.75;36.38;;;16.70;99.90;;;;;;4968628;28;20029;-83
2021/06/27 06:41:18;;;;;;;60.60;34.13;;;16.80;99.90;;;;;;5018040;28;20492;-87
2021/06/27 06:43:45;;;;;;;53.15;33.97;;;16.90;99.90;;;;;;5019742;28;20076;-84
2021/06/27 06:46:11;;;;;;;55.38;34.38;;;16.80;99.90;;;;;;5021164;28;20040;-85
2021/06/27 06:48:37;;;;;;;56.45;32.97;;;16.90;99.90;;;;;;5002436;28;20404;-87
2021/06/27 06:51:03;;;;;;;56.00;33.92;;;16.90;99.90;;;;;;5015657;28;20052;-84
2021/06/27 06:53:29;;;;;;;54.33;32.90;;;17.00;99.90;;;;;;5004602;28;20030;-85
2021/06/27 06:55:57;;;;;;;49.92;31.80;;;17.10;99.90;;;;;;5008338;28;20071;-89
2021/06/27 06:58:28;;;;;;;49.83;31.95;;;17.10;99.90;;;;;;4994034;28;20045;-86
2021/06/27 07:00:54;;;;;;;49.47;32.20;;;17.30;99.90;;;;;;5004931;28;20037;-85
2021/06/27 07:03:20;;;;;;;45.35;29.88;;;17.50;99.80;;;;;;4994849;28;20048;-84
2021/06/27 07:05:46;;;;;;;46.55;29.20;;;17.60;99.40;;;;;;4981583;28;20045;-84
2021/06/27 07:08:12;;;;;;;44.55;30.02;;;17.70;99.00;;;;;;4986446;28;20961;-87
2021/06/27 07:10:38;;;;;;;42.85;28.73;;;17.70;98.70;;;;;;4998530;28;20026;-85
2021/06/27 07:13:03;;;;;;;42.90;28.30;;;17.90;98.70;;;;;;4984407;28;20517;-87
2021/06/27 07:15:30;;;;;;;38.58;26.58;;;18.00;98.50;;;;;;4976868;28;20103;-86
2021/06/27 07:17:56;;;;;;;44.53;27.70;;;18.20;98.30;;;;;;4995286;28;20488;-85
2021/06/27 07:20:22;;;;;;;43.40;27.48;;;18.30;98.10;;;;;;4979264;28;20080;-86
2021/06/27 07:22:47;;;;;;;40.88;25.98;;;18.50;97.90;;;;;;4972873;28;20198;-87
2021/06/27 07:25:14;;;;;;;36.75;26.58;;;18.60;97.70;;;;;;5004575;28;20116;-87
2021/06/27 07:27:40;;;;;;;40.55;26.50;;;18.70;97.50;;;;;;5010186;28;20037;-85
2021/06/27 07:30:07;;;;;;;37.33;24.52;;;18.90;97.30;;;;;;4993528;28;20041;-86
2021/06/27 07:32:33;;;;;;;33.85;23.73;;;19.00;97.00;;;;;;4992087;28;20053;-89
2021/06/27 07:34:59;;;;;;;35.00;24.90;;;19.20;97.00;;;;;;5010655;28;20072;-86
2021/06/27 07:37:24;;;;;;;34.05;23.67;;;19.30;96.60;;;;;;4974412;28;20128;-88
2021/06/27 07:39:51;;;;;;;30.58;23.45;;;19.40;96.10;;;;;;4979627;28;20029;-89
2021/06/27 07:42:19;;;;;;;35.25;22.80;;;19.60;96.10;;;;;;4993267;28;20029;-89
2021/06/27 07:44:45;;;;;;;30.23;22.38;;;19.70;95.90;;;;;;4979746;28;20709;-88
2021/06/27 07:47:11;;;;;;;35.65;23.33;;;19.80;95.50;;;;;;4983087;28;20145;-86
2021/06/27 07:49:37;;;;;;;31.83;22.65;;;19.80;95.10;;;;;;4969005;28;20080;-88
2021/06/27 07:52:03;;;;;;;31.20;22.40;;;19.90;94.90;;;;;;4987688;28;20068;-88
2021/06/27 07:54:31;;;;;;;31.13;21.55;;;19.90;95.00;;;;;;5007759;28;20045;-88
2021/06/27 07:56:56;;;;;;;35.20;22.17;;;19.90;94.80;;;;;;4980520;28;20033;-85
2021/06/27 07:59:23;;;;;;;27.83;21.40;;;19.90;94.50;;;;;;5012639;28;20047;-86
2021/06/27 08:01:48;;;;;;;28.55;21.80;;;19.90;94.50;;;;;;4994112;28;20526;-85
2021/06/27 08:04:14;;;;;;;28.40;19.95;;;20.00;94.60;;;;;;5008020;28;20034;-92
2021/06/27 08:06:40;;;;;;;28.23;21.17;;;20.10;94.70;;;;;;4994186;28;20029;-86
2021/06/27 08:09:06;;;;;;;28.77;19.45;;;20.20;94.30;;;;;;4997116;28;20903;-84
2021/06/27 08:11:32;;;;;;;25.27;20.27;;;20.20;94.30;;;;;;4996711;28;20091;-86
2021/06/27 08:13:58;;;;;;;25.70;19.58;;;20.40;94.10;;;;;;4990776;28;20404;-88
2021/06/27 08:16:24;;;;;;;28.33;21.20;;;20.40;94.00;;;;;;4992873;28;20052;-87
2021/06/27 08:18:49;;;;;;;24.95;20.15;;;20.50;93.70;;;;;;4995226;28;20065;-85
2021/06/27 08:21:15;;;;;;;28.05;20.83;;;20.50;93.40;;;;;;5010789;28;20046;-84
2021/06/27 08:23:41;;;;;;;23.23;18.50;;;20.50;93.40;;;;;;4976970;28;20084;-84
2021/06/27 08:26:07;;;;;;;27.20;19.75;;;20.50;93.50;;;;;;4978935;28;20033;-83
2021/06/27 08:28:33;;;;;;;25.17;18.80;;;20.60;93.40;;;;;;4995784;28;20480;-86
2021/06/27 08:30:59;;;;;;;29.90;19.52;;;20.60;93.40;;;;;;4993599;28;20034;-87
2021/06/27 08:33:25;;;;;;;25.88;19.10;;;20.70;93.30;;;;;;4979501;28;20117;-87
2021/06/27 08:35:51;;;;;;;22.80;16.85;;;20.80;93.30;;;;;;4977115;28;20046;-84
2021/06/27 08:38:17;;;;;;;26.92;17.73;;;20.80;93.20;;;;;;5011766;28;20539;-83
2021/06/27 08:40:42;;;;;;;23.30;17.13;;;20.80;92.60;;;;;;4992420;28;20060;-85
2021/06/27 08:43:10;;;;;;;21.10;18.17;;;20.80;92.60;;;;;;5011838;28;20371;-84
2021/06/27 08:46:07;;;;;;;23.05;16.73;;;20.80;93.10;;;;;;4995903;28;20515;-85
2021/06/27 08:48:38;;;;;;;24.20;17.20;;;20.90;93.00;;;;;;5025759;28;20113;-86
2021/06/27 08:51:06;;;;;;;25.25;18.50;;;21.00;92.90;;;;;;5010852;28;20038;-86
2021/06/27 08:53:34;;;;;;;21.67;16.20;;;21.00;92.40;;;;;;4985206;28;20029;-87
2021/06/27 08:56:08;;;;;;;23.67;16.90;;;21.10;92.50;;;;;;4978920;28;20041;-86
2021/06/27 08:58:42;;;;;;;23.33;18.05;;;21.10;92.40;;;;;;4975800;28;20447;-83
2021/06/27 09:01:14;;;;;;;21.60;16.40;;;21.20;92.40;;;;;;5028058;28;20044;-85
2021/06/27 09:03:41;;;;;;;20.77;15.95;;;21.20;91.70;;;;;;5005731;28;20457;-84
2021/06/27 09:06:09;;;;;;;25.70;16.85;;;21.20;92.00;;;;;;4980141;28;20048;-85
2021/06/27 09:08:35;;;;;;;20.50;16.52;;;21.30;92.00;;;;;;4992337;28;20108;-85
2021/06/27 09:11:14;;;;;;;19.98;15.43;;;21.30;91.90;;;;;;5003634;28;20053;-85
2021/06/27 09:13:43;;;;;;;19.73;15.00;;;21.30;92.20;;;;;;5018508;28;20044;-84
2021/06/27 09:16:24;;;;;;;19.80;14.55;;;21.40;92.00;;;;;;5010319;28;20270;-87
2021/06/27 09:18:51;;;;;;;22.65;16.90;;;21.50;91.60;;;;;;4991620;28;20485;-85
2021/06/27 09:21:18;;;;;;;21.58;15.68;;;21.60;91.70;;;;;;5011260;28;20041;-84
2021/06/27 09:23:49;;;;;;;20.40;14.70;;;21.60;91.70;;;;;;4998318;28;20037;-86
2021/06/27 09:26:32;;;;;;;21.40;15.30;;;21.60;91.60;;;;;;5012824;28;20040;-87
2021/06/27 09:28:59;;;;;;;18.40;14.55;;;21.70;90.40;;;;;;5019599;28;20049;-90
2021/06/27 09:31:43;;;;;;;22.13;16.00;;;21.70;91.20;;;;;;5005147;28;20090;-85
2021/06/27 09:34:13;;;;;;;19.58;15.75;;;21.70;90.80;;;;;;5033388;28;20040;-85
2021/06/27 09:36:53;;;;;;;22.25;15.57;;;21.80;90.80;;;;;;5012216;28;20113;-84
2021/06/27 09:39:19;;;;;;;21.55;16.25;;;21.80;90.30;;;;;;4996181;28;20041;-86
2021/06/27 09:41:51;;;;;;;21.83;15.55;;;21.80;90.70;;;;;;4986480;28;20432;-87
2021/06/27 09:44:18;;;;;;;20.00;14.88;;;21.70;90.80;;;;;;5014447;28;20092;-86
2021/06/27 09:46:50;;;;;;;17.80;14.15;;;21.70;91.30;;;;;;5015693;28;20053;-89
2021/06/27 09:49:28;;;;;;;;;;;21.70;90.70;;;;;;5016438;28;20102;-86
2021/06/27 09:52:02;;;;;;;18.27;14.60;;;21.70;90.70;;;;;;5034129;28;19917;-84
2021/06/27 09:54:27;;;;;;;19.67;14.82;;;21.70;90.80;;;;;;5015883;28;20056;-85
2021/06/27 09:56:57;;;;;;;19.50;15.38;;;21.70;90.60;;;;;;4994434;28;20662;-85
2021/06/27 09:59:41;;;;;;;17.33;15.38;;;21.70;90.70;;;;;;4998837;28;20100;-84
2021/06/27 10:02:08;;;;;;;20.65;15.40;;;21.80;89.90;;;;;;5012981;28;20042;-83
2021/06/27 10:04:39;;;;;;;19.52;14.75;;;21.80;90.30;;;;;;5034715;28;20037;-85
2021/06/27 10:07:07;;;;;;;17.10;14.00;;;21.90;90.50;;;;;;5019213;28;20247;-88
2021/06/27 10:09:35;;;;;;;20.55;14.35;;;21.90;90.50;;;;;;5009951;28;20108;-85
2021/06/27 10:12:07;;;;;;;16.08;13.10;;;22.00;90.30;;;;;;5015658;28;20084;-84
2021/06/27 10:14:39;;;;;;;14.77;13.10;;;22.00;90.20;;;;;;5012213;28;20049;-88
2021/06/27 10:17:05;;;;;;;15.30;13.47;;;22.20;90.10;;;;;;5031692;28;20079;-83
2021/06/27 10:19:32;;;;;;;21.02;15.07;;;22.20;89.60;;;;;;5009080;28;20304;-83
2021/06/27 10:21:59;;;;;;;18.27;13.60;;;22.30;89.00;;;;;;5026484;28;20045;-85
2021/06/27 10:24:26;;;;;;;18.60;14.45;;;22.30;89.00;;;;;;4991683;28;20042;-85
2021/06/27 10:26:52;;;;;;;17.42;13.52;;;22.30;88.50;;;;;;4983815;28;20030;-84
2021/06/27 10:29:19;;;;;;;16.88;13.73;;;22.40;88.50;;;;;;4999774;28;20088;-89
2021/06/27 10:31:46;;;;;;;16.50;13.43;;;22.40;87.80;;;;;;5031096;28;20123;-84
2021/06/27 10:34:13;;;;;;;17.73;13.77;;;22.50;88.80;;;;;;4998756;28;20070;-87
2021/06/27 10:36:42;;;;;;;19.58;14.90;;;22.50;87.90;;;;;;4975732;28;20042;-85
2021/06/27 10:39:11;;;;;;;15.30;12.60;;;22.60;87.40;;;;;;5016315;28;20056;-85
2021/06/27 10:41:54;;;;;;;19.33;14.45;;;22.60;88.00;;;;;;5022517;28;20022;-85
2021/06/27 10:44:26;;;;;;;17.15;13.50;;;22.70;88.00;;;;;;5011345;28;20037;-81
2021/06/27 10:46:55;;;;;;;18.48;14.57;;;22.70;86.90;;;;;;4996254;28;20046;-83
2021/06/27 10:49:30;;;;;;;15.88;13.15;;;22.70;87.60;;;;;;5021382;28;20038;-83
2021/06/27 10:52:13;;;;;;;18.00;13.73;;;22.70;87.30;;;;;;5029507;28;20072;-84
2021/06/27 10:54:38;;;;;;;17.10;13.73;;;22.80;88.90;;;;;;4983994;28;20165;-83
2021/06/27 10:57:17;;;;;;;17.63;14.27;;;22.80;88.20;;;;;;5019560;28;20036;-88
2021/06/27 10:59:52;;;;;;;21.90;13.98;;;22.80;87.00;;;;;;5030131;28;20369;-83
2021/06/27 11:02:39;;;;;;;17.98;13.98;;;22.80;87.60;;;;;;5009726;28;20045;-90
2021/06/27 11:05:33;;;;;;;17.65;13.00;;;22.90;87.90;;;;;;5014084;28;20056;-85
2021/06/27 11:08:00;;;;;;;16.52;13.35;;;22.90;88.40;;;;;;5017999;28;20037;-83
2021/06/27 11:10:28;;;;;;;18.17;13.80;;;23.00;87.80;;;;;;4983748;28;20412;-84
2021/06/27 11:13:21;;;;;;;19.17;13.75;;;23.00;87.40;;;;;;4996352;28;20044;-83
2021/06/27 11:15:50;;;;;;;17.92;15.18;;;23.00;87.60;;;;;;5010380;28;20127;-87
2021/06/27 11:18:35;;;;;;;16.85;14.50;;;22.90;87.20;;;;;;5001150;28;20102;-84
2021/06/27 11:21:24;;;;;;;15.88;13.82;;;22.90;87.00;;;;;;4996899;28;20413;-84
2021/06/27 11:23:59;;;;;;;17.65;15.25;;;22.90;87.80;;;;;;4999511;28;20068;-83
2021/06/27 11:26:46;;;;;;;16.42;13.65;;;22.90;87.40;;;;;;4991743;28;20587;-86
2021/06/27 11:29:22;;;;;;;19.45;13.45;;;22.90;86.30;;;;;;5002062;28;20034;-84
2021/06/27 11:31:54;;;;;;;17.65;13.00;;;23.00;87.80;;;;;;4998691;28;20037;-86
2021/06/27 11:34:31;;;;;;;14.90;11.10;;;23.10;87.50;;;;;;5006391;28;20026;-83
2021/06/27 11:37:21;;;;;;;14.40;12.38;;;23.20;87.00;;;;;;4970663;28;20554;-87
2021/06/27 11:39:49;;;;;;;15.15;12.43;;;23.30;85.90;;;;;;5014448;28;20038;-83
2021/06/27 11:42:26;;;;;;;14.80;12.57;;;23.40;86.90;;;;;;5001029;28;20551;-84
2021/06/27 11:45:07;;;;;;;16.80;13.35;;;23.50;86.10;;;;;;4999380;28;20543;-82
2021/06/27 11:47:35;;;;;;;19.00;12.93;;;23.60;83.90;;;;;;4991510;28;20608;-84
2021/06/27 11:50:23;;;;;;;15.50;12.38;;;23.60;85.20;;;;;;4998443;28;20036;-86
2021/06/27 11:52:51;;;;;;;16.52;12.75;;;23.70;84.60;;;;;;4995748;28;20455;-84
2021/06/27 11:55:17;;;;;;;15.30;10.93;;;23.70;85.40;;;;;;5000905;28;20041;-84
2021/06/27 11:57:44;;;;;;;13.73;11.82;;;23.80;85.60;;;;;;4991394;28;20101;-85
2021/06/27 12:00:11;;;;;;;13.57;10.45;;;23.80;84.60;;;;;;5007937;28;20064;-87
2021/06/27 12:02:38;;;;;;;14.20;10.10;;;23.80;84.90;;;;;;4971192;28;20447;-86
2021/06/27 12:05:10;;;;;;;13.27;10.50;;;23.90;84.90;;;;;;4969865;28;20044;-83
2021/06/27 12:07:39;;;;;;;12.93;11.10;;;24.00;83.60;;;;;;4976772;28;20045;-85
2021/06/27 12:10:20;;;;;;;11.32;9.90;;;24.10;82.90;;;;;;4975366;28;20045;-86
2021/06/27 12:12:56;;;;;;;15.75;10.15;;;24.10;82.30;;;;;;4981653;28;20345;-87
2021/06/27 12:15:22;;;;;;;12.45;10.82;;;24.10;82.90;;;;;;4998220;28;20416;-86
2021/06/27 12:17:54;;;;;;;13.20;10.10;;;24.20;82.80;;;;;;4994589;28;20042;-84
2021/06/27 12:20:20;;;;;;;11.65;9.95;;;24.20;82.70;;;;;;4993569;28;20044;-84
2021/06/27 12:23:07;;;;;;;16.52;10.05;;;24.30;82.50;;;;;;4991987;28;20106;-84
2021/06/27 12:25:37;;;;;;;11.77;10.18;;;24.20;81.50;;;;;;5006189;28;21845;-85
2021/06/27 12:28:06;;;;;;;10.80;8.70;;;24.10;81.70;;;;;;4990601;28;20040;-89
2021/06/27 12:30:47;;;;;;;12.13;9.25;;;24.10;82.20;;;;;;4992495;28;20072;-87
2021/06/27 12:33:34;;;;;;;12.30;9.73;;;24.10;81.20;;;;;;4991436;28;20113;-86
2021/06/27 12:36:04;;;;;;;12.10;10.15;;;24.10;79.50;;;;;;4992594;28;20962;-85